createdAt,value
2017-10-14T00:01:30.469Z,92.18
2017-10-14T00:03:58.163Z,92.20
2017-10-14T00:06:25.814Z,92.17
2017-10-14T00:08:53.487Z,92.14
2017-10-14T00:11:21.133Z,92.12
2017-10-14T00:13:48.822Z,92.09
2017-10-14T00:16:17.491Z,92.09
2017-10-14T00:18:45.188Z,92.09
2017-10-14T00:21:12.789Z,92.19
2017-10-14T00:23:40.501Z,92.24
2017-10-14T00:26:08.163Z,92.28
2017-10-14T00:28:35.841Z,92.28
2017-10-14T00:31:03.501Z,92.29
2017-10-14T00:33:31.202Z,92.24
2017-10-14T00:35:58.853Z,92.35
2017-10-14T00:38:26.550Z,92.40
2017-10-14T00:40:54.141Z,92.44
2017-10-14T00:43:21.788Z,92.51
2017-10-14T00:45:49.464Z,92.57
2017-10-14T00:48:17.106Z,92.55
2017-10-14T00:50:44.817Z,92.59
2017-10-14T00:53:12.456Z,92.59
2017-10-14T00:55:40.163Z,92.72
2017-10-14T00:58:07.823Z,92.72
2017-10-14T01:00:35.520Z,92.71
2017-10-14T01:03:03.193Z,92.64
2017-10-14T01:05:30.882Z,92.61
2017-10-14T01:07:58.559Z,92.62
2017-10-14T01:10:26.262Z,92.63
2017-10-14T01:12:53.930Z,92.62
2017-10-14T01:15:21.672Z,92.67
2017-10-14T01:17:49.318Z,92.74
2017-10-14T01:20:17.002Z,92.76
2017-10-14T01:22:44.649Z,92.67
2017-10-14T01:25:12.344Z,92.55
2017-10-14T01:27:39.990Z,92.49
2017-10-14T01:30:07.716Z,92.43
2017-10-14T01:32:35.402Z,92.38
2017-10-14T01:35:03.114Z,92.34
2017-10-14T01:37:30.773Z,92.34
2017-10-14T01:39:58.414Z,92.30
2017-10-14T01:42:26.090Z,92.26
2017-10-14T01:44:53.731Z,92.28
2017-10-14T01:47:21.434Z,92.24
2017-10-14T01:49:49.087Z,92.23
2017-10-14T01:52:16.777Z,92.21
2017-10-14T01:54:44.421Z,92.07
2017-10-14T01:57:12.108Z,92.00
2017-10-14T01:59:39.763Z,91.95
2017-10-14T02:02:07.464Z,91.96
2017-10-14T02:04:35.107Z,92.00
2017-10-14T02:07:02.800Z,92.04
2017-10-14T02:09:30.459Z,92.03
2017-10-14T02:11:58.151Z,92.10
2017-10-14T02:14:25.816Z,92.19
2017-10-14T02:16:53.535Z,92.41
2017-10-14T02:19:21.182Z,92.59
2017-10-14T02:21:48.863Z,92.75
2017-10-14T02:24:16.508Z,92.82
2017-10-14T02:26:44.196Z,92.84
2017-10-14T02:29:11.845Z,92.90
2017-10-14T02:31:39.479Z,93.01
2017-10-14T02:34:07.169Z,93.24
2017-10-14T02:36:34.805Z,93.29
2017-10-14T02:39:02.476Z,93.42
2017-10-14T02:41:30.127Z,93.59
2017-10-14T02:43:57.811Z,93.74
2017-10-14T02:46:25.454Z,93.89
2017-10-14T02:48:53.141Z,94.00
2017-10-14T02:51:20.781Z,94.08
2017-10-14T02:53:48.479Z,94.08
2017-10-14T02:56:16.071Z,94.03
2017-10-14T02:58:43.748Z,93.99
2017-10-14T03:01:11.394Z,93.89
2017-10-14T03:03:39.084Z,93.81
2017-10-14T03:06:06.730Z,93.76
2017-10-14T03:08:34.431Z,93.74
2017-10-14T03:11:02.077Z,93.70
2017-10-14T03:13:29.761Z,93.66
2017-10-14T03:15:57.449Z,93.59
2017-10-14T03:18:25.144Z,93.51
2017-10-14T03:20:52.791Z,93.40
2017-10-14T03:23:20.447Z,93.35
2017-10-14T03:25:48.071Z,93.27
2017-10-14T03:28:15.718Z,93.24
2017-10-14T03:30:43.398Z,93.19
2017-10-14T03:33:11.046Z,93.12
2017-10-14T03:35:38.724Z,93.06
2017-10-14T03:38:06.311Z,92.95
2017-10-14T03:40:33.996Z,92.89
2017-10-14T03:43:01.684Z,92.82
2017-10-14T03:45:29.361Z,92.77
2017-10-14T03:47:57.003Z,92.69
2017-10-14T03:50:24.690Z,92.66
2017-10-14T03:52:52.332Z,92.69
2017-10-14T03:55:20.010Z,92.66
2017-10-14T03:57:47.678Z,92.63
2017-10-14T04:00:15.369Z,92.62
2017-10-14T04:02:43.043Z,92.62
2017-10-14T04:05:10.734Z,92.62
2017-10-14T04:07:38.367Z,92.61
2017-10-14T04:10:06.062Z,92.58
2017-10-14T04:12:33.705Z,92.52
2017-10-14T04:15:01.402Z,92.42
2017-10-14T04:17:29.087Z,92.37
2017-10-14T04:19:56.732Z,92.31
2017-10-14T04:22:24.410Z,92.29
2017-10-14T04:24:51.994Z,92.30
2017-10-14T04:27:19.676Z,92.28
2017-10-14T04:29:47.342Z,92.32
2017-10-14T04:32:16.035Z,92.39
2017-10-14T04:34:43.687Z,92.40
2017-10-14T04:37:11.393Z,92.44
2017-10-14T04:39:39.046Z,92.43
2017-10-14T04:42:06.738Z,92.42
2017-10-14T04:44:34.415Z,92.37
2017-10-14T04:47:02.123Z,92.32
2017-10-14T04:49:29.812Z,92.25
2017-10-14T04:51:57.486Z,92.20
2017-10-14T04:54:25.126Z,92.20
2017-10-14T04:56:52.746Z,92.22
2017-10-14T04:59:20.395Z,92.17
2017-10-14T05:01:48.082Z,92.17
2017-10-14T05:04:15.741Z,92.14
2017-10-14T05:06:43.442Z,92.16
2017-10-14T05:09:11.117Z,92.20
2017-10-14T05:11:38.789Z,92.25
2017-10-14T05:14:06.446Z,92.24
2017-10-14T05:16:34.150Z,92.22
2017-10-14T05:19:01.821Z,92.26
2017-10-14T05:21:29.453Z,92.30
2017-10-14T05:23:57.058Z,92.31
2017-10-14T05:26:24.744Z,92.29
2017-10-14T05:28:52.427Z,92.34
2017-10-14T05:31:20.076Z,92.40
2017-10-14T05:33:47.775Z,92.35
2017-10-14T05:36:15.435Z,92.39
2017-10-14T05:38:43.046Z,92.41
2017-10-14T05:41:10.703Z,92.48
2017-10-14T05:43:38.398Z,92.53
2017-10-14T05:46:06.050Z,92.54
2017-10-14T05:48:33.732Z,92.53
2017-10-14T05:51:01.376Z,92.51
2017-10-14T05:53:29.078Z,92.46
2017-10-14T05:55:56.732Z,92.42
2017-10-14T05:58:24.353Z,92.42
2017-10-14T06:00:51.986Z,92.44
2017-10-14T06:03:19.673Z,92.42
2017-10-14T06:05:47.290Z,92.43
2017-10-14T06:08:14.906Z,92.34
2017-10-14T06:10:42.519Z,92.26
2017-10-14T06:13:10.147Z,92.16
2017-10-14T06:15:37.735Z,92.15
2017-10-14T06:18:05.366Z,92.11
2017-10-14T06:20:32.976Z,92.09
2017-10-14T06:23:00.618Z,92.07
2017-10-14T06:25:28.195Z,92.01
2017-10-14T06:27:55.789Z,91.99
2017-10-14T06:30:23.416Z,91.91
2017-10-14T06:32:51.006Z,91.77
2017-10-14T06:35:18.628Z,91.70
2017-10-14T06:37:46.233Z,91.74
2017-10-14T06:40:13.859Z,91.59
2017-10-14T06:42:41.462Z,91.57
2017-10-14T06:45:09.083Z,91.46
2017-10-14T06:47:36.668Z,91.20
2017-10-14T06:50:04.296Z,91.00
2017-10-14T06:52:31.889Z,90.82
2017-10-14T06:54:59.537Z,90.59
2017-10-14T06:57:27.152Z,90.61
2017-10-14T06:59:54.778Z,90.63
2017-10-14T07:02:22.362Z,90.73
2017-10-14T07:04:49.982Z,90.96
2017-10-14T07:07:17.583Z,91.07
2017-10-14T07:09:45.192Z,90.93
2017-10-14T07:12:12.981Z,90.67
2017-10-14T07:14:40.623Z,90.55
2017-10-14T07:17:08.224Z,90.30
2017-10-14T07:19:35.820Z,90.22
2017-10-14T07:22:03.439Z,90.02
2017-10-14T07:24:31.039Z,89.84
2017-10-14T07:26:58.696Z,89.73
2017-10-14T07:29:26.283Z,89.49
2017-10-14T07:31:53.904Z,89.59
2017-10-14T07:34:21.506Z,89.47
2017-10-14T07:36:49.126Z,89.36
2017-10-14T07:39:16.709Z,89.31
2017-10-14T07:41:44.343Z,89.25
2017-10-14T07:44:11.946Z,89.46
2017-10-14T07:46:39.589Z,89.74
2017-10-14T07:49:07.183Z,89.71
2017-10-14T07:51:34.807Z,89.91
2017-10-14T07:54:02.415Z,89.89
2017-10-14T07:56:30.037Z,89.60
2017-10-14T07:58:57.624Z,89.50
2017-10-14T08:01:25.255Z,89.52
2017-10-14T08:03:52.846Z,89.36
2017-10-14T08:06:20.518Z,89.35
2017-10-14T08:08:48.110Z,89.25
2017-10-14T08:11:15.752Z,89.15
2017-10-14T08:13:43.367Z,89.05
2017-10-14T08:16:10.971Z,89.17
2017-10-14T08:18:38.695Z,89.15
2017-10-14T08:21:06.305Z,89.01
2017-10-14T08:23:33.947Z,88.90
2017-10-14T08:26:01.550Z,88.92
2017-10-14T08:28:29.187Z,88.65
2017-10-14T08:30:56.786Z,88.24
2017-10-14T08:33:24.420Z,88.10
2017-10-14T08:35:52.001Z,87.82
2017-10-14T08:38:19.631Z,87.71
2017-10-14T08:40:47.287Z,87.47
2017-10-14T08:43:15.004Z,87.27
2017-10-14T08:45:42.611Z,86.73
2017-10-14T08:48:10.323Z,86.91
2017-10-14T08:50:37.962Z,86.76
2017-10-14T08:53:05.589Z,86.55
2017-10-14T08:55:33.265Z,86.66
2017-10-14T08:58:00.936Z,86.52
2017-10-14T09:00:28.562Z,86.83
2017-10-14T09:02:56.266Z,87.03
2017-10-14T09:05:23.953Z,86.88
2017-10-14T09:07:51.605Z,87.02
2017-10-14T09:10:19.384Z,87.28
2017-10-14T09:12:47.021Z,87.07
2017-10-14T09:15:14.739Z,86.79
2017-10-14T09:17:42.335Z,87.06
2017-10-14T09:20:10.040Z,87.06
2017-10-14T09:22:37.698Z,87.25
2017-10-14T09:25:05.398Z,87.05
2017-10-14T09:27:33.093Z,87.22
2017-10-14T09:30:00.802Z,87.55
2017-10-14T09:32:28.464Z,87.15
2017-10-14T09:34:56.185Z,87.10
2017-10-14T09:37:23.844Z,86.37
2017-10-14T09:39:51.519Z,84.74
2017-10-14T09:42:19.159Z,84.67
2017-10-14T09:44:46.843Z,84.06
2017-10-14T09:47:14.514Z,83.46
2017-10-14T09:49:42.222Z,83.11
2017-10-14T09:52:09.890Z,81.31
2017-10-14T09:54:37.602Z,81.60
2017-10-14T09:57:05.269Z,80.98
2017-10-14T09:59:32.913Z,81.46
2017-10-14T10:02:00.649Z,82.02
2017-10-14T10:04:28.308Z,82.10
2017-10-14T10:06:55.984Z,82.93
2017-10-14T10:09:23.641Z,83.30
2017-10-14T10:11:51.316Z,84.12
2017-10-14T10:14:18.962Z,84.17
2017-10-14T10:16:47.606Z,84.26
2017-10-14T10:19:15.263Z,84.76
2017-10-14T10:21:42.968Z,84.85
2017-10-14T10:24:10.619Z,85.08
2017-10-14T10:26:38.300Z,85.38
2017-10-14T10:29:05.970Z,85.80
2017-10-14T10:31:33.677Z,85.52
2017-10-14T10:34:01.323Z,85.57
2017-10-14T10:36:29.011Z,85.58
2017-10-14T10:38:56.757Z,85.53
2017-10-14T10:41:24.828Z,85.01
2017-10-14T10:43:52.486Z,84.53
2017-10-14T10:46:20.165Z,84.03
2017-10-14T10:48:47.911Z,83.61
2017-10-14T10:51:15.590Z,83.79
2017-10-14T10:53:43.230Z,83.48
2017-10-14T10:56:10.891Z,81.71
2017-10-14T10:58:38.608Z,81.09
2017-10-14T11:01:06.271Z,81.26
2017-10-14T11:03:33.968Z,82.04
2017-10-14T11:06:01.607Z,81.80
2017-10-14T11:08:29.296Z,82.02
2017-10-14T11:10:56.955Z,82.35
2017-10-14T11:13:24.636Z,81.86
2017-10-14T11:15:52.327Z,81.82
2017-10-14T11:18:20.010Z,81.75
2017-10-14T11:20:47.667Z,82.23
2017-10-14T11:23:15.380Z,82.02
2017-10-14T11:25:43.043Z,81.23
2017-10-14T11:28:10.669Z,80.31
2017-10-14T11:30:38.333Z,80.51
2017-10-14T11:33:06.050Z,79.53
2017-10-14T11:35:33.718Z,79.75
2017-10-14T11:38:01.440Z,80.82
2017-10-14T11:40:29.091Z,81.27
2017-10-14T11:42:56.774Z,82.25
2017-10-14T11:45:24.375Z,82.44
2017-10-14T11:47:52.074Z,83.34
2017-10-14T11:50:19.739Z,83.78
2017-10-14T11:52:47.465Z,84.06
2017-10-14T11:55:15.126Z,84.11
2017-10-14T11:57:42.804Z,84.43
2017-10-14T12:00:10.513Z,84.59
2017-10-14T12:02:38.174Z,84.76
2017-10-14T12:05:05.865Z,85.22
2017-10-14T12:07:33.548Z,85.21
2017-10-14T12:10:01.231Z,85.30
2017-10-14T12:12:28.911Z,85.35
2017-10-14T12:14:56.610Z,85.10
2017-10-14T12:17:24.290Z,85.42
2017-10-14T12:19:51.990Z,85.34
2017-10-14T12:22:19.634Z,85.04
2017-10-14T12:24:47.316Z,84.81
2017-10-14T12:27:14.985Z,85.19
2017-10-14T12:29:42.737Z,84.71
2017-10-14T12:32:10.386Z,85.66
2017-10-14T12:34:38.074Z,85.10
2017-10-14T12:37:05.731Z,85.74
2017-10-14T12:39:33.422Z,85.67
2017-10-14T12:42:01.554Z,86.04
2017-10-14T12:44:29.278Z,86.05
2017-10-14T12:46:56.924Z,85.94
2017-10-14T12:49:24.621Z,86.21
2017-10-14T12:51:52.305Z,86.18
2017-10-14T12:54:19.981Z,86.30
2017-10-14T12:56:47.651Z,86.03
2017-10-14T12:59:15.352Z,85.42
2017-10-14T13:01:43.026Z,84.79
2017-10-14T13:04:10.687Z,83.99
2017-10-14T13:06:38.375Z,83.28
2017-10-14T13:09:06.045Z,82.81
2017-10-14T13:11:33.892Z,81.62
2017-10-14T13:14:01.559Z,81.92
2017-10-14T13:16:29.306Z,82.16
2017-10-14T13:18:56.957Z,81.61
2017-10-14T13:21:24.635Z,81.39
2017-10-14T13:23:52.284Z,82.21
2017-10-14T13:26:19.984Z,82.15
2017-10-14T13:28:47.652Z,82.83
2017-10-14T13:31:15.299Z,82.86
2017-10-14T13:33:42.960Z,83.08
2017-10-14T13:36:10.651Z,83.40
2017-10-14T13:38:38.310Z,83.55
2017-10-14T13:41:05.990Z,83.58
2017-10-14T13:43:33.649Z,84.19
2017-10-14T13:46:01.331Z,84.11
2017-10-14T13:48:29.026Z,84.37
2017-10-14T13:50:56.723Z,84.67
2017-10-14T13:53:24.386Z,84.95
2017-10-14T13:55:52.111Z,85.23
2017-10-14T13:58:19.771Z,85.43
2017-10-14T14:00:47.426Z,85.18
2017-10-14T14:03:15.149Z,85.60
2017-10-14T14:05:42.824Z,86.04
2017-10-14T14:08:10.519Z,86.12
2017-10-14T14:10:38.177Z,85.70
2017-10-14T14:13:05.869Z,86.02
2017-10-14T14:15:33.536Z,86.23
2017-10-14T14:18:01.247Z,86.06
2017-10-14T14:20:28.895Z,86.03
2017-10-14T14:22:56.601Z,86.08
2017-10-14T14:25:24.271Z,86.00
2017-10-14T14:27:51.982Z,85.97
2017-10-14T14:30:19.648Z,86.05
2017-10-14T14:32:47.363Z,85.70
2017-10-14T14:35:15.052Z,85.97
2017-10-14T14:37:42.857Z,86.04
2017-10-14T14:40:10.570Z,86.09
2017-10-14T14:42:38.219Z,86.11
2017-10-14T14:45:05.866Z,86.12
2017-10-14T14:47:33.556Z,86.31
2017-10-14T14:50:01.210Z,86.49
2017-10-14T14:52:28.892Z,86.58
2017-10-14T14:54:56.562Z,86.23
2017-10-14T14:57:24.262Z,86.78
2017-10-14T14:59:51.933Z,87.06
2017-10-14T15:02:19.604Z,87.02
2017-10-14T15:04:47.310Z,87.29
2017-10-14T15:07:14.968Z,87.50
2017-10-14T15:09:42.674Z,87.69
2017-10-14T15:12:10.333Z,87.96
2017-10-14T15:14:38.043Z,87.89
2017-10-14T15:17:06.831Z,88.01
2017-10-14T15:19:34.511Z,88.17
2017-10-14T15:22:02.168Z,87.68
2017-10-14T15:24:29.880Z,87.92
2017-10-14T15:26:57.557Z,88.10
2017-10-14T15:29:25.272Z,87.92
2017-10-14T15:31:52.978Z,88.17
2017-10-14T15:34:20.665Z,88.19
2017-10-14T15:36:48.350Z,88.39
2017-10-14T15:39:16.028Z,88.62
2017-10-14T15:41:43.678Z,88.76
2017-10-14T15:44:11.375Z,88.51
2017-10-14T15:46:39.039Z,88.55
2017-10-14T15:49:06.731Z,88.56
2017-10-14T15:51:34.423Z,88.68
2017-10-14T15:54:02.117Z,88.70
2017-10-14T15:56:29.787Z,88.83
2017-10-14T15:58:57.484Z,88.98
2017-10-14T16:01:25.125Z,89.12
2017-10-14T16:03:52.825Z,89.13
2017-10-14T16:06:20.496Z,89.23
2017-10-14T16:08:48.211Z,89.42
2017-10-14T16:11:15.878Z,89.20
2017-10-14T16:13:43.540Z,89.09
2017-10-14T16:16:11.266Z,88.83
2017-10-14T16:18:38.960Z,88.56
2017-10-14T16:21:06.692Z,88.45
2017-10-14T16:23:34.301Z,88.32
2017-10-14T16:26:02.018Z,88.32
2017-10-14T16:28:29.725Z,88.37
2017-10-14T16:30:57.415Z,88.39
2017-10-14T16:33:25.080Z,88.55
2017-10-14T16:35:52.767Z,88.61
2017-10-14T16:38:20.440Z,88.64
2017-10-14T16:40:48.128Z,88.70
2017-10-14T16:43:15.780Z,88.46
2017-10-14T16:45:43.473Z,88.42
2017-10-14T16:48:11.116Z,88.54
2017-10-14T16:50:38.826Z,88.68
2017-10-14T16:53:06.424Z,88.08
2017-10-14T16:55:34.119Z,88.24
2017-10-14T16:58:01.772Z,87.78
2017-10-14T17:00:29.508Z,88.07
2017-10-14T17:02:57.219Z,88.06
2017-10-14T17:05:24.867Z,87.98
2017-10-14T17:07:52.563Z,88.18
2017-10-14T17:10:20.278Z,87.90
2017-10-14T17:12:47.984Z,88.27
2017-10-14T17:15:15.641Z,88.04
2017-10-14T17:17:44.327Z,88.27
2017-10-14T17:20:11.987Z,88.34
2017-10-14T17:22:39.699Z,88.37
2017-10-14T17:25:07.375Z,88.40
2017-10-14T17:27:35.074Z,88.29
2017-10-14T17:30:02.757Z,88.30
2017-10-14T17:32:30.385Z,88.42
2017-10-14T17:34:58.009Z,88.43
2017-10-14T17:37:25.654Z,88.41
2017-10-14T17:39:53.305Z,88.18
2017-10-14T17:42:20.923Z,88.48
2017-10-14T17:44:48.605Z,88.40
2017-10-14T17:47:16.229Z,88.12
2017-10-14T17:49:43.892Z,87.55
2017-10-14T17:52:11.586Z,87.80
2017-10-14T17:54:39.240Z,87.46
2017-10-14T17:57:06.946Z,87.56
2017-10-14T17:59:34.594Z,87.60
2017-10-14T18:02:02.282Z,87.75
2017-10-14T18:04:29.869Z,88.00
2017-10-14T18:06:57.571Z,88.30
2017-10-14T18:09:25.225Z,88.59
2017-10-14T18:11:52.907Z,88.87
2017-10-14T18:14:20.575Z,89.13
2017-10-14T18:16:49.169Z,89.52
2017-10-14T18:19:16.818Z,89.85
2017-10-14T18:21:44.540Z,90.05
2017-10-14T18:24:12.207Z,90.25
2017-10-14T18:26:39.867Z,90.38
2017-10-14T18:29:07.578Z,90.53
2017-10-14T18:31:35.261Z,90.64
2017-10-14T18:34:02.976Z,90.78
2017-10-14T18:36:30.628Z,90.85
2017-10-14T18:38:58.329Z,90.93
2017-10-14T18:41:25.978Z,91.03
2017-10-14T18:43:53.659Z,91.11
2017-10-14T18:46:21.344Z,91.18
2017-10-14T18:48:49.036Z,91.34
2017-10-14T18:51:16.655Z,91.51
2017-10-14T18:53:44.363Z,91.66
2017-10-14T18:56:12.059Z,91.80
2017-10-14T18:58:39.735Z,91.92
2017-10-14T19:01:07.335Z,92.10
2017-10-14T19:03:35.036Z,92.22
2017-10-14T19:06:02.707Z,92.29
2017-10-14T19:08:30.385Z,92.37
2017-10-14T19:10:58.051Z,92.46
2017-10-14T19:13:25.706Z,92.52
2017-10-14T19:15:53.306Z,92.56
2017-10-14T19:18:21.002Z,92.65
2017-10-14T19:20:48.674Z,92.72
2017-10-14T19:23:16.315Z,92.82
2017-10-14T19:25:43.942Z,92.85
2017-10-14T19:28:11.647Z,92.98
2017-10-14T19:30:39.308Z,93.15
2017-10-14T19:33:07.006Z,93.23
2017-10-14T19:35:34.660Z,93.27
2017-10-14T19:38:02.360Z,93.33
2017-10-14T19:40:30.038Z,93.36
2017-10-14T19:42:57.717Z,93.38
2017-10-14T19:45:25.425Z,93.51
2017-10-14T19:47:53.115Z,93.51
2017-10-14T19:50:20.727Z,93.51
2017-10-14T19:52:48.435Z,93.52
2017-10-14T19:55:16.107Z,93.56
2017-10-14T19:57:43.819Z,93.60
2017-10-14T20:00:11.483Z,93.65
2017-10-14T20:02:39.143Z,93.69
2017-10-14T20:05:06.849Z,93.72
2017-10-14T20:07:34.499Z,93.71
2017-10-14T20:10:02.191Z,93.72
2017-10-14T20:12:29.881Z,93.69
2017-10-14T20:14:57.571Z,93.68
2017-10-14T20:17:25.153Z,93.80
2017-10-14T20:19:52.840Z,93.96
2017-10-14T20:22:20.497Z,94.03
2017-10-14T20:24:48.195Z,94.14
2017-10-14T20:27:15.843Z,94.20
2017-10-14T20:29:43.527Z,94.42
2017-10-14T20:32:11.186Z,94.54
2017-10-14T20:34:38.882Z,94.58
2017-10-14T20:37:06.469Z,94.75
2017-10-14T20:39:34.188Z,94.70
2017-10-14T20:42:01.794Z,94.53
2017-10-14T20:44:29.426Z,94.49
2017-10-14T20:46:57.443Z,94.55
2017-10-14T20:49:26.058Z,94.69
2017-10-14T20:51:53.736Z,94.78
2017-10-14T20:54:21.430Z,94.86
2017-10-14T20:56:49.097Z,95.04
2017-10-14T20:59:16.785Z,95.20
2017-10-14T21:01:44.480Z,95.30
2017-10-14T21:04:12.154Z,95.43
2017-10-14T21:06:39.870Z,95.47
2017-10-14T21:09:07.519Z,95.60
2017-10-14T21:11:35.215Z,95.88
2017-10-14T21:14:02.866Z,96.01
2017-10-14T21:16:31.777Z,96.04
2017-10-14T21:18:59.436Z,95.96
2017-10-14T21:21:27.091Z,95.99
2017-10-14T21:23:54.742Z,95.99
2017-10-14T21:26:22.442Z,95.93
2017-10-14T21:28:50.126Z,95.84
2017-10-14T21:31:17.808Z,95.82
2017-10-14T21:33:45.456Z,95.83
2017-10-14T21:36:13.169Z,95.84
2017-10-14T21:38:40.826Z,95.90
2017-10-14T21:41:08.507Z,95.87
2017-10-14T21:43:36.167Z,95.85
2017-10-14T21:46:03.866Z,96.05
2017-10-14T21:48:31.516Z,96.24
2017-10-14T21:50:59.209Z,96.28
2017-10-14T21:53:26.857Z,96.28
2017-10-14T21:55:54.546Z,96.35
2017-10-14T21:58:22.198Z,96.41
2017-10-14T22:00:49.825Z,96.42
2017-10-14T22:03:19.542Z,96.42
2017-10-14T22:05:47.275Z,96.47
2017-10-14T22:08:14.939Z,96.52
2017-10-14T22:10:42.569Z,96.64
2017-10-14T22:13:10.220Z,96.72
2017-10-14T22:15:37.942Z,96.77
2017-10-14T22:18:05.581Z,96.80
2017-10-14T22:20:33.267Z,96.82
2017-10-14T22:23:00.925Z,96.85
2017-10-14T22:25:28.628Z,96.95
2017-10-14T22:27:56.287Z,97.03
2017-10-14T22:30:23.999Z,97.15
2017-10-14T22:32:51.578Z,97.25
2017-10-14T22:35:19.170Z,97.32
2017-10-14T22:37:46.849Z,97.37
2017-10-14T22:40:14.435Z,97.42
2017-10-14T22:42:42.054Z,97.45
2017-10-14T22:45:09.699Z,97.43
2017-10-14T22:47:37.377Z,97.42
2017-10-14T22:50:05.043Z,97.42
2017-10-14T22:52:33.605Z,97.38
2017-10-14T22:55:01.211Z,97.32
2017-10-14T22:57:28.895Z,97.25
2017-10-14T22:59:56.500Z,97.25
2017-10-14T23:02:24.118Z,97.18
2017-10-14T23:04:51.762Z,97.26
2017-10-14T23:07:19.452Z,97.40
2017-10-14T23:09:47.108Z,97.49
2017-10-14T23:12:14.794Z,97.54
2017-10-14T23:14:42.442Z,97.56
2017-10-14T23:17:10.183Z,97.65
2017-10-14T23:19:37.823Z,97.73
2017-10-14T23:22:06.236Z,97.81
2017-10-14T23:24:33.937Z,97.97
2017-10-14T23:27:01.578Z,98.11
2017-10-14T23:29:29.258Z,98.19
2017-10-14T23:31:56.842Z,98.19
2017-10-14T23:34:24.467Z,98.24
2017-10-14T23:36:52.119Z,98.27
2017-10-14T23:39:19.804Z,98.30
2017-10-14T23:41:47.388Z,98.30
2017-10-14T23:44:15.074Z,98.22
2017-10-14T23:46:42.756Z,98.15
2017-10-14T23:49:10.466Z,98.17
2017-10-14T23:51:38.107Z,98.14
2017-10-14T23:54:05.795Z,97.99
2017-10-14T23:56:33.446Z,98.00
2017-10-14T23:59:01.133Z,98.08
